Back to Top

Language: 

My Weather Underground Personal Weather Station Historical Data with Graphs...

Delerius Weather Station Historical Data
Daily Summary for February 16, 2017 Units:  English    Metric   Both
« Previous Day
Next Day »
Daily Weekly Monthly Yearly Custom
  High: Low: Average:
Temperature: 51.9 °F 43.0 °F 46.7 °F
Dew Point: 44.1 °F 38.6 °F 41.9 °F
Humidity: 90 % 73 % 84 %
Wind Speed: 17.0 mph 0.0 mph 8.3 mph
Wind Gust: 24.0 mph - -
Wind:- - West
Pressure: 30.29 in 30.23 in -
Precipitation: 0.00 in    
Historical Graphs
 
 
Tabular Data for February 16, 2017
Time Temperature Dew Point Pressure Wind Wind Speed Wind Gust Humidity Rainfall Rate (Hourly) solar Conditions
00:05 46.9 °F 44.1 °F 30.26 in SW 5.0 mph 12.0 mph 90 % 0.00 in 0 W/m2
00:15 47.2 °F 44.1 °F 30.26 in SW 9.0 mph 9.0 mph 89 % 0.00 in 0 W/m2
00:25 47.5 °F 43.8 °F 30.26 in West 10.0 mph 12.0 mph 87 % 0.00 in 0 W/m2
00:30 47.5 °F 43.8 °F 30.26 in WSW 10.0 mph 14.0 mph 87 % 0.00 in 0 W/m2
00:40 47.6 °F 43.9 °F 30.26 in WSW 11.0 mph 11.0 mph 87 % 0.00 in 0 W/m2
00:45 47.5 °F 43.8 °F 30.26 in WSW 8.0 mph 11.0 mph 87 % 0.00 in 0 W/m2
00:55 47.3 °F 43.9 °F 30.26 in West 8.0 mph 16.0 mph 88 % 0.00 in 0 W/m2
01:00 47.4 °F 44.0 °F 30.26 in West 10.0 mph 10.0 mph 88 % 0.00 in 0 W/m2
01:05 47.4 °F 43.7 °F 30.26 in WSW 10.0 mph 12.0 mph 87 % 0.00 in 0 W/m2
01:15 47.3 °F 43.6 °F 30.27 in WSW 9.0 mph 13.0 mph 87 % 0.00 in 0 W/m2
01:20 47.3 °F 43.6 °F 30.27 in West 9.0 mph 12.0 mph 87 % 0.00 in 0 W/m2
01:25 47.1 °F 43.7 °F 30.27 in West 8.0 mph 14.0 mph 88 % 0.00 in 0 W/m2
01:35 46.9 °F 43.5 °F 30.26 in West 9.0 mph 12.0 mph 88 % 0.00 in 0 W/m2
01:40 46.9 °F 43.5 °F 30.27 in West 9.0 mph 12.0 mph 88 % 0.00 in 0 W/m2
01:50 47.0 °F 43.3 °F 30.27 in WSW 9.0 mph 12.0 mph 87 % 0.00 in 0 W/m2
01:55 47.0 °F 43.3 °F 30.27 in WSW 8.0 mph 12.0 mph 87 % 0.00 in 0 W/m2
02:05 46.9 °F 42.9 °F 30.27 in WNW 8.0 mph 12.0 mph 86 % 0.00 in 0 W/m2
02:10 46.8 °F 42.8 °F 30.27 in SW 8.0 mph 8.0 mph 86 % 0.00 in 0 W/m2
02:15 46.8 °F 42.8 °F 30.27 in WNW 7.0 mph 12.0 mph 86 % 0.00 in 0 W/m2
02:20 46.6 °F 42.6 °F 30.27 in WNW 5.0 mph 12.0 mph 86 % 0.00 in 0 W/m2
02:35 46.3 °F 42.0 °F 30.27 in West 4.0 mph 12.0 mph 85 % 0.00 in 0 W/m2
02:40 46.2 °F 42.2 °F 30.28 in West 3.0 mph 3.0 mph 86 % 0.00 in 0 W/m2
02:45 46.1 °F 42.1 °F 30.27 in West 3.0 mph 12.0 mph 86 % 0.00 in 0 W/m2
02:55 45.9 °F 41.9 °F 30.27 in West 3.0 mph 12.0 mph 86 % 0.00 in 0 W/m2
03:00 45.9 °F 41.9 °F 30.27 in WSW 3.0 mph 3.0 mph 86 % 0.00 in 0 W/m2
03:05 45.7 °F 41.8 °F 30.27 in West 1.0 mph 12.0 mph 86 % 0.00 in 0 W/m2
03:15 45.1 °F 41.5 °F 30.27 in Calm   12.0 mph 87 % 0.00 in 0 W/m2
03:20 45.0 °F 41.4 °F 30.27 in Calm   12.0 mph 87 % 0.00 in 0 W/m2
03:25 44.8 °F 41.5 °F 30.27 in Calm   12.0 mph 88 % 0.00 in 0 W/m2
03:30 44.6 °F 41.3 °F 30.27 in West 1.0 mph 12.0 mph 88 % 0.00 in 0 W/m2
03:35 44.6 °F 41.3 °F 30.27 in West 2.0 mph 12.0 mph 88 % 0.00 in 0 W/m2
03:45 44.6 °F 41.3 °F 30.27 in SW 3.0 mph 12.0 mph 88 % 0.00 in 0 W/m2
03:50 44.8 °F 41.5 °F 30.27 in SW 5.0 mph 5.0 mph 88 % 0.00 in 0 W/m2
04:00 45.2 °F 41.3 °F 30.28 in SSW 5.0 mph 5.0 mph 86 % 0.00 in 0 W/m2
04:10 45.3 °F 41.1 °F 30.27 in SW 4.0 mph 4.0 mph 85 % 0.00 in 0 W/m2
04:15 45.3 °F 41.1 °F 30.28 in SW 3.0 mph 12.0 mph 85 % 0.00 in 0 W/m2
04:20 45.2 °F 41.0 °F 30.28 in SSW 2.0 mph 2.0 mph 85 % 0.00 in 0 W/m2
04:30 44.9 °F 41.0 °F 30.28 in SSW 1.0 mph 12.0 mph 86 % 0.00 in 0 W/m2
04:35 44.8 °F 40.9 °F 30.27 in WSW 3.0 mph 12.0 mph 86 % 0.00 in 0 W/m2
04:40 44.7 °F 40.8 °F 30.27 in WSW 3.0 mph 12.0 mph 86 % 0.00 in 0 W/m2
04:45 44.7 °F 40.8 °F 30.28 in WSW 4.0 mph 12.0 mph 86 % 0.00 in 0 W/m2
04:55 44.8 °F 40.9 °F 30.28 in WSW 7.0 mph 12.0 mph 86 % 0.00 in 0 W/m2
05:00 44.7 °F 40.8 °F 30.27 in West 4.0 mph 4.0 mph 86 % 0.00 in 0 W/m2
05:10 44.4 °F 40.5 °F 30.27 in SSW 4.0 mph 4.0 mph 86 % 0.00 in 0 W/m2
05:15 44.3 °F 40.4 °F 30.28 in West 4.0 mph 5.0 mph 86 % 0.00 in 0 W/m2
05:20 44.2 °F 40.3 °F 30.28 in SW 2.0 mph 12.0 mph 86 % 0.00 in 0 W/m2
05:25 44.1 °F 40.2 °F 30.28 in SW 3.0 mph 12.0 mph 86 % 0.00 in 0 W/m2
05:35 44.0 °F 40.1 °F 30.27 in WSW 4.0 mph 12.0 mph 86 % 0.00 in 0 W/m2
05:40 43.9 °F 40.0 °F 30.27 in WSW 5.0 mph 12.0 mph 86 % 0.00 in 0 W/m2
05:45 43.8 °F 39.6 °F 30.27 in WNW 4.0 mph 12.0 mph 85 % 0.00 in 0 W/m2
05:50 43.9 °F 39.7 °F 30.28 in West 6.0 mph 12.0 mph 85 % 0.00 in 0 W/m2
06:00 43.9 °F 39.7 °F 30.27 in West 7.0 mph 7.0 mph 85 % 0.00 in 0 W/m2
06:05 43.8 °F 39.6 °F 30.28 in WNW 6.0 mph 12.0 mph 85 % 0.00 in 0 W/m2
06:10 43.7 °F 39.5 °F 30.28 in West 4.0 mph 12.0 mph 85 % 0.00 in 0 W/m2
06:15 43.6 °F 39.4 °F 30.28 in WSW 5.0 mph 12.0 mph 85 % 0.00 in 0 W/m2
06:25 43.5 °F 39.3 °F 30.28 in West 5.0 mph 12.0 mph 85 % 0.00 in 0 W/m2
06:30 43.5 °F 39.3 °F 30.28 in SW 5.0 mph 5.0 mph 85 % 0.00 in 0 W/m2
06:35 43.5 °F 39.3 °F 30.27 in SW 5.0 mph 7.0 mph 85 % 0.00 in 0 W/m2
06:45 43.7 °F 39.2 °F 30.27 in SSW 7.0 mph 12.0 mph 84 % 0.00 in 0 W/m2
06:50 43.8 °F 39.3 °F 30.27 in SW 8.0 mph 8.0 mph 84 % 0.00 in 0 W/m2
06:55 43.7 °F 39.2 °F 30.27 in WSW 6.0 mph 12.0 mph 84 % 0.00 in 0 W/m2
07:00 43.5 °F 39.0 °F 30.28 in SW 6.0 mph 12.0 mph 84 % 0.00 in 0 W/m2
07:10 43.4 °F 38.9 °F 30.28 in SW 6.0 mph 12.0 mph 84 % 0.00 in 0 W/m2
07:15 43.4 °F 38.9 °F 30.27 in SW 8.0 mph 12.0 mph 84 % 0.00 in 0 W/m2
07:25 43.2 °F 38.7 °F 30.28 in West 6.0 mph 12.0 mph 84 % 0.00 in 5 W/m2
07:30 43.1 °F 38.6 °F 30.27 in WSW 6.0 mph 12.0 mph 84 % 0.00 in 7 W/m2
07:40 43.0 °F 38.8 °F 30.28 in WSW 6.0 mph 12.0 mph 85 % 0.00 in 16 W/m2
07:45 43.1 °F 38.6 °F 30.28 in SW 7.0 mph 12.0 mph 84 % 0.00 in 25 W/m2
07:55 43.4 °F 38.9 °F 30.28 in WSW 7.0 mph 12.0 mph 84 % 0.00 in 58 W/m2
08:00 43.8 °F 39.3 °F 30.28 in SW 8.0 mph 12.0 mph 84 % 0.00 in 81 W/m2
08:10 44.4 °F 39.9 °F 30.28 in WNW 8.0 mph 12.0 mph 84 % 0.00 in 111 W/m2
08:15 44.6 °F 39.8 °F 30.29 in West 8.0 mph 12.0 mph 83 % 0.00 in 121 W/m2
08:20 45.0 °F 39.8 °F 30.29 in West 9.0 mph 9.0 mph 82 % 0.00 in 128 W/m2
08:30 45.5 °F 40.0 °F 30.29 in West 9.0 mph 15.0 mph 81 % 0.00 in 142 W/m2
08:35 45.7 °F 40.2 °F 30.29 in WSW 11.0 mph 15.0 mph 81 % 0.00 in 72 W/m2
08:40 45.8 °F 40.3 °F 30.29 in WSW 12.0 mph 12.0 mph 81 % 0.00 in 70 W/m2
08:50 46.0 °F 40.5 °F 30.29 in West 9.0 mph 9.0 mph 81 % 0.00 in 188 W/m2
08:55 46.1 °F 40.6 °F 30.29 in SW 9.0 mph 12.0 mph 81 % 0.00 in 213 W/m2
09:00 46.4 °F 41.2 °F 30.29 in WSW 9.0 mph 12.0 mph 82 % 0.00 in 193 W/m2
09:10 46.6 °F 41.1 °F 30.29 in West 11.0 mph 12.0 mph 81 % 0.00 in 232 W/m2
09:15 46.6 °F 41.1 °F 30.29 in WSW 11.0 mph 14.0 mph 81 % 0.00 in 229 W/m2
09:20 46.8 °F 41.3 °F 30.29 in West 10.0 mph 10.0 mph 81 % 0.00 in 264 W/m2
09:25 46.9 °F 41.4 °F 30.29 in WSW 9.0 mph 15.0 mph 81 % 0.00 in 121 W/m2
09:30 46.7 °F 40.9 °F 30.29 in WSW 10.0 mph 13.0 mph 80 % 0.00 in 118 W/m2
09:40 46.4 °F 40.6 °F 30.29 in West 10.0 mph 12.0 mph 80 % 0.00 in 60 W/m2
09:45 46.2 °F 40.4 °F 30.29 in WSW 11.0 mph 12.0 mph 80 % 0.00 in 56 W/m2
09:50 46.0 °F 40.5 °F 30.29 in SW 10.0 mph 10.0 mph 81 % 0.00 in 62 W/m2
10:00 45.8 °F 40.6 °F 30.29 in West 8.0 mph 8.0 mph 82 % 0.00 in 141 W/m2
10:05 46.0 °F 40.8 °F 30.29 in SW 8.0 mph 11.0 mph 82 % 0.00 in 195 W/m2
10:10 46.2 °F 40.7 °F 30.28 in SW 8.0 mph 8.0 mph 81 % 0.00 in 139 W/m2
10:20 46.5 °F 41.0 °F 30.28 in SW 8.0 mph 12.0 mph 81 % 0.00 in 107 W/m2
10:25 46.5 °F 41.0 °F 30.28 in WSW 9.0 mph 12.0 mph 81 % 0.00 in 95 W/m2
10:30 46.6 °F 41.1 °F 30.28 in West 9.0 mph 9.0 mph 81 % 0.00 in 77 W/m2
10:40 46.6 °F 41.1 °F 30.28 in WSW 8.0 mph 12.0 mph 81 % 0.00 in 74 W/m2
10:45 46.8 °F 41.3 °F 30.28 in West 8.0 mph 14.0 mph 81 % 0.00 in 76 W/m2
10:50 46.8 °F 41.3 °F 30.29 in SW 9.0 mph 12.0 mph 81 % 0.00 in 81 W/m2
11:00 47.0 °F 41.5 °F 30.28 in West 10.0 mph 15.0 mph 81 % 0.00 in 107 W/m2
11:10 47.2 °F 41.3 °F 30.28 in West 10.0 mph 14.0 mph 80 % 0.00 in 134 W/m2
11:15 47.3 °F 41.4 °F 30.28 in SW 11.0 mph 14.0 mph 80 % 0.00 in 127 W/m2
11:20 47.4 °F 41.5 °F 30.28 in SW 10.0 mph 15.0 mph 80 % 0.00 in 120 W/m2
11:25 47.4 °F 41.5 °F 30.28 in WSW 11.0 mph 20.0 mph 80 % 0.00 in 135 W/m2
11:35 47.6 °F 41.7 °F 30.28 in West 12.0 mph 12.0 mph 80 % 0.00 in 171 W/m2
11:40 47.8 °F 41.9 °F 30.28 in WSW 11.0 mph 11.0 mph 80 % 0.00 in 174 W/m2
11:50 48.1 °F 42.2 °F 30.27 in West 11.0 mph 11.0 mph 80 % 0.00 in 155 W/m2
11:55 48.3 °F 42.1 °F 30.27 in West 11.0 mph 12.0 mph 79 % 0.00 in 244 W/m2
12:00 48.6 °F 42.4 °F 30.27 in WNW 12.0 mph 13.0 mph 79 % 0.00 in 218 W/m2
12:10 49.3 °F 42.7 °F 30.26 in SW 12.0 mph 12.0 mph 78 % 0.00 in 253 W/m2
12:15 49.6 °F 42.7 °F 30.26 in WSW 13.0 mph 13.0 mph 77 % 0.00 in 294 W/m2
12:20 49.7 °F 42.8 °F 30.27 in WSW 14.0 mph 14.0 mph 77 % 0.00 in 221 W/m2
12:25 49.7 °F 42.8 °F 30.27 in WNW 15.0 mph 15.0 mph 77 % 0.00 in 304 W/m2
12:30 49.8 °F 42.9 °F 30.27 in WNW 15.0 mph 15.0 mph 77 % 0.00 in 422 W/m2
12:40 49.9 °F 43.0 °F 30.26 in West 15.0 mph 15.0 mph 77 % 0.00 in 234 W/m2
12:45 49.9 °F 43.0 °F 30.26 in SW 14.0 mph 15.0 mph 77 % 0.00 in 301 W/m2
12:50 49.9 °F 42.6 °F 30.26 in WSW 15.0 mph 22.0 mph 76 % 0.00 in 313 W/m2
12:55 50.1 °F 42.8 °F 30.26 in SW 16.0 mph 22.0 mph 76 % 0.00 in 404 W/m2
13:05 50.4 °F 43.1 °F 30.26 in WSW 14.0 mph 15.0 mph 76 % 0.00 in 415 W/m2
13:10 50.6 °F 43.3 °F 30.25 in West 15.0 mph 16.0 mph 76 % 0.00 in 482 W/m2
13:15 51.1 °F 43.8 °F 30.25 in West 15.0 mph 16.0 mph 76 % 0.00 in 468 W/m2
13:35 51.9 °F 43.9 °F 30.24 in SW 17.0 mph 22.0 mph 74 % 0.00 in 454 W/m2
13:45 51.7 °F 43.7 °F 30.24 in WSW 15.0 mph 24.0 mph 74 % 0.00 in 244 W/m2
13:50 51.2 °F 43.5 °F 30.23 in West 14.0 mph 14.0 mph 75 % 0.00 in 239 W/m2
13:55 50.9 °F 43.6 °F 30.24 in WSW 12.0 mph 16.0 mph 76 % 0.00 in 190 W/m2
14:05 50.5 °F 43.2 °F 30.24 in West 13.0 mph 16.0 mph 76 % 0.00 in 81 W/m2
14:10 50.3 °F 43.0 °F 30.24 in West 13.0 mph 13.0 mph 76 % 0.00 in 67 W/m2
14:20 50.0 °F 43.1 °F 30.24 in West 11.0 mph 11.0 mph 77 % 0.00 in 21 W/m2
14:25 49.8 °F 43.2 °F 30.24 in West 10.0 mph 12.0 mph 78 % 0.00 in 23 W/m2
14:30 49.7 °F 43.1 °F 30.24 in West 9.0 mph 9.0 mph 78 % 0.00 in 19 W/m2
14:40 49.6 °F 43.4 °F 30.24 in WSW 6.0 mph 6.0 mph 79 % 0.00 in 44 W/m2
14:45 49.5 °F 43.3 °F 30.24 in West 5.0 mph 9.0 mph 79 % 0.00 in 54 W/m2
14:50 49.5 °F 43.3 °F 30.24 in WSW 7.0 mph 7.0 mph 79 % 0.00 in 63 W/m2
15:00 49.4 °F 43.2 °F 30.24 in West 8.0 mph 8.0 mph 79 % 0.00 in 53 W/m2
15:05 49.2 °F 42.0 °F 30.24 in WNW 10.0 mph 10.0 mph 76 % 0.00 in 28 W/m2
15:10 49.2 °F 41.6 °F 30.24 in West 11.0 mph 12.0 mph 75 % 0.00 in 35 W/m2
15:15 49.1 °F 41.5 °F 30.24 in West 12.0 mph 19.0 mph 75 % 0.00 in 47 W/m2
15:25 49.2 °F 41.3 °F 30.24 in West 13.0 mph 13.0 mph 74 % 0.00 in 46 W/m2
15:30 49.2 °F 40.9 °F 30.24 in WNW 13.0 mph 13.0 mph 73 % 0.00 in 51 W/m2
15:40 49.1 °F 41.2 °F 30.25 in West 12.0 mph 13.0 mph 74 % 0.00 in 28 W/m2
15:45 49.1 °F 41.5 °F 30.25 in West 12.0 mph 13.0 mph 75 % 0.00 in 21 W/m2
15:50 49.0 °F 41.8 °F 30.25 in WNW 13.0 mph 16.0 mph 76 % 0.00 in 21 W/m2
15:55 48.8 °F 41.9 °F 30.25 in WNW 14.0 mph 20.0 mph 77 % 0.00 in 23 W/m2
16:05 48.5 °F 42.3 °F 30.24 in WSW 13.0 mph 15.0 mph 79 % 0.00 in 21 W/m2
16:10 48.3 °F 42.4 °F 30.25 in WSW 13.0 mph 13.0 mph 80 % 0.00 in 25 W/m2
16:15 48.1 °F 42.2 °F 30.25 in West 12.0 mph 13.0 mph 80 % 0.00 in 23 W/m2
16:20 47.9 °F 42.0 °F 30.25 in SW 11.0 mph 11.0 mph 80 % 0.00 in 19 W/m2
16:25 47.6 °F 41.7 °F 30.25 in West 11.0 mph 12.0 mph 80 % 0.00 in 16 W/m2
16:35 47.3 °F 41.8 °F 30.25 in WSW 7.0 mph 12.0 mph 81 % 0.00 in 14 W/m2
16:40 47.1 °F 41.6 °F 30.25 in WSW 6.0 mph 12.0 mph 81 % 0.00 in 14 W/m2
16:45 47.0 °F 41.5 °F 30.25 in West 7.0 mph 12.0 mph 81 % 0.00 in 11 W/m2
16:55 46.8 °F 41.6 °F 30.26 in West 6.0 mph 12.0 mph 82 % 0.00 in 7 W/m2
17:00 46.6 °F 41.4 °F 30.25 in West 5.0 mph 5.0 mph 82 % 0.00 in 7 W/m2
17:10 46.4 °F 41.2 °F 30.25 in West 5.0 mph 5.0 mph 82 % 0.00 in 5 W/m2
17:15 46.4 °F 41.2 °F 30.25 in WSW 6.0 mph 6.0 mph 82 % 0.00 in 0 W/m2
17:20 46.6 °F 41.4 °F 30.26 in West 6.0 mph 6.0 mph 82 % 0.00 in 0 W/m2
17:30 47.1 °F 41.9 °F 30.26 in WSW 11.0 mph 11.0 mph 82 % 0.00 in 0 W/m2
17:35 47.2 °F 42.0 °F 30.26 in West 10.0 mph 12.0 mph 82 % 0.00 in 0 W/m2
17:40 47.3 °F 41.8 °F 30.26 in West 11.0 mph 11.0 mph 81 % 0.00 in 0 W/m2
17:45 47.3 °F 41.8 °F 30.26 in WNW 11.0 mph 12.0 mph 81 % 0.00 in 0 W/m2
17:55 47.2 °F 41.7 °F 30.26 in WNW 8.0 mph 12.0 mph 81 % 0.00 in 0 W/m2
18:00 47.1 °F 41.6 °F 30.26 in WNW 8.0 mph 12.0 mph 81 % 0.00 in 0 W/m2
18:05 46.9 °F 41.4 °F 30.27 in West 9.0 mph 14.0 mph 81 % 0.00 in 0 W/m2
18:10 46.8 °F 41.3 °F 30.26 in West 10.0 mph 12.0 mph 81 % 0.00 in 0 W/m2
18:20 46.7 °F 41.2 °F 30.27 in West 10.0 mph 18.0 mph 81 % 0.00 in 0 W/m2
18:25 46.9 °F 41.4 °F 30.27 in West 12.0 mph 18.0 mph 81 % 0.00 in 0 W/m2
18:30 47.0 °F 41.5 °F 30.27 in WSW 14.0 mph 20.0 mph 81 % 0.00 in 0 W/m2
18:40 46.7 °F 41.8 °F 30.27 in West 13.0 mph 18.0 mph 83 % 0.00 in 0 W/m2
18:45 46.4 °F 41.8 °F 30.26 in WNW 14.0 mph 18.0 mph 84 % 0.00 in 0 W/m2
18:50 46.3 °F 42.0 °F 30.26 in WSW 13.0 mph 13.0 mph 85 % 0.00 in 0 W/m2
19:00 46.1 °F 42.1 °F 30.26 in WSW 11.0 mph 12.0 mph 86 % 0.00 in 0 W/m2
19:05 46.2 °F 42.2 °F 30.26 in WSW 10.0 mph 12.0 mph 86 % 0.00 in 0 W/m2
19:10 46.2 °F 42.2 °F 30.26 in West 9.0 mph 12.0 mph 86 % 0.00 in 0 W/m2
19:20 46.3 °F 42.0 °F 30.27 in West 9.0 mph 9.0 mph 85 % 0.00 in 0 W/m2
19:25 46.3 °F 42.0 °F 30.27 in WSW 7.0 mph 10.0 mph 85 % 0.00 in 0 W/m2
19:35 46.4 °F 42.1 °F 30.27 in SW 8.0 mph 12.0 mph 85 % 0.00 in 0 W/m2
19:45 46.4 °F 42.7 °F 30.27 in WSW 7.0 mph 12.0 mph 87 % 0.00 in 0 W/m2
19:50 46.3 °F 42.6 °F 30.27 in WSW 5.0 mph 5.0 mph 87 % 0.00 in 0 W/m2
19:55 46.3 °F 42.6 °F 30.27 in WSW 4.0 mph 12.0 mph 87 % 0.00 in 0 W/m2
20:00 46.2 °F 42.5 °F 30.27 in WSW 3.0 mph 3.0 mph 87 % 0.00 in 0 W/m2
20:10 46.2 °F 42.8 °F 30.27 in West 7.0 mph 7.0 mph 88 % 0.00 in 0 W/m2
20:15 46.2 °F 42.8 °F 30.27 in WSW 8.0 mph 12.0 mph 88 % 0.00 in 0 W/m2
20:25 46.1 °F 43.0 °F 30.26 in West 8.0 mph 11.0 mph 89 % 0.00 in 0 W/m2
20:30 46.1 °F 43.0 °F 30.26 in WNW 9.0 mph 12.0 mph 89 % 0.00 in 0 W/m2
20:35 46.1 °F 43.0 °F 30.26 in WNW 11.0 mph 12.0 mph 89 % 0.00 in 0 W/m2
20:45 46.1 °F 43.0 °F 30.27 in WSW 9.0 mph 12.0 mph 89 % 0.00 in 0 W/m2
20:50 46.1 °F 43.0 °F 30.27 in West 8.0 mph 12.0 mph 89 % 0.00 in 0 W/m2
20:55 46.2 °F 43.1 °F 30.26 in West 9.0 mph 12.0 mph 89 % 0.00 in 0 W/m2
21:05 46.3 °F 42.9 °F 30.27 in WNW 10.0 mph 10.0 mph 88 % 0.00 in 0 W/m2
21:10 46.4 °F 43.0 °F 30.27 in West 10.0 mph 12.0 mph 88 % 0.00 in 0 W/m2
21:15 46.5 °F 42.8 °F 30.27 in West 10.0 mph 12.0 mph 87 % 0.00 in 0 W/m2
21:20 46.5 °F 42.8 °F 30.27 in West 10.0 mph 10.0 mph 87 % 0.00 in 0 W/m2
21:30 46.6 °F 42.9 °F 30.26 in WNW 10.0 mph 10.0 mph 87 % 0.00 in 0 W/m2
21:40 46.7 °F 43.0 °F 30.26 in WNW 10.0 mph 10.0 mph 87 % 0.00 in 0 W/m2
21:45 46.8 °F 43.1 °F 30.27 in West 10.0 mph 12.0 mph 87 % 0.00 in 0 W/m2
21:50 46.8 °F 43.1 °F 30.27 in West 9.0 mph 9.0 mph 87 % 0.00 in 0 W/m2
21:55 46.8 °F 43.4 °F 30.27 in West 9.0 mph 10.0 mph 88 % 0.00 in 0 W/m2
22:05 46.7 °F 43.3 °F 30.28 in West 7.0 mph 12.0 mph 88 % 0.00 in 0 W/m2
22:10 46.6 °F 43.5 °F 30.28 in WNW 6.0 mph 6.0 mph 89 % 0.00 in 0 W/m2
22:15 46.6 °F 43.5 °F 30.28 in West 5.0 mph 12.0 mph 89 % 0.00 in 0 W/m2
22:25 46.6 °F 43.5 °F 30.28 in WSW 5.0 mph 12.0 mph 89 % 0.00 in 0 W/m2
22:35 46.6 °F 43.5 °F 30.28 in WNW 7.0 mph 12.0 mph 89 % 0.00 in 0 W/m2
22:40 46.6 °F 43.8 °F 30.28 in West 6.0 mph 12.0 mph 90 % 0.00 in 0 W/m2
22:45 46.6 °F 43.8 °F 30.28 in WNW 6.0 mph 12.0 mph 90 % 0.00 in 0 W/m2
22:55 46.5 °F 43.7 °F 30.28 in West 6.0 mph 12.0 mph 90 % 0.00 in 0 W/m2
23:00 46.5 °F 43.7 °F 30.28 in West 5.0 mph 5.0 mph 90 % 0.00 in 0 W/m2
23:05 46.5 °F 43.7 °F 30.28 in West 6.0 mph 6.0 mph 90 % 0.00 in 0 W/m2
23:15 46.5 °F 43.7 °F 30.28 in WNW 5.0 mph 10.0 mph 90 % 0.00 in 0 W/m2
23:20 46.5 °F 43.7 °F 30.28 in West 6.0 mph 12.0 mph 90 % 0.00 in 0 W/m2
23:25 46.5 °F 43.7 °F 30.28 in West 6.0 mph 12.0 mph 90 % 0.00 in 0 W/m2
23:30 46.6 °F 43.8 °F 30.27 in West 6.0 mph 6.0 mph 90 % 0.00 in 0 W/m2
23:40 46.5 °F 43.7 °F 30.27 in West 4.0 mph 12.0 mph 90 % 0.00 in 0 W/m2
23:45 46.5 °F 43.7 °F 30.27 in West 4.0 mph 12.0 mph 90 % 0.00 in 0 W/m2
23:50 46.5 °F 43.7 °F 30.28 in WSW 5.0 mph 12.0 mph 90 % 0.00 in 0 W/m2
23:55 46.5 °F 43.7 °F 30.28 in West 5.0 mph 12.0 mph 90 % 0.00 in 0 W/m2
Delerius-Weather
Compliments of Weather Underground - 1.75 mb

Data updates at regular intervals.